Time;durP1;ratioP1;P1;durP2;ratioP2;P2;SDS_P1;SDS_P2;PMS_P1;PMS_P2;Temp;Humidity;BMP_temperature;BMP_pressure;BME280_temperature;BME280_humidity;BME280_pressure;Samples;Min_cycle;Max_cycle;Signal;HPM_P1;HPM_P2
2024/01/24 00:06:41;;;;;;;1.08;0.60;;;;;;;18.76;57.23;100469.56;21001543;28;20052;-69
2024/01/24 00:16:43;;;;;;;0.90;0.40;;;;;;;18.80;57.60;100477.19;20992158;28;20052;-69
2024/01/24 00:26:45;;;;;;;0.50;0.30;;;;;;;18.82;57.56;100504.84;20989546;28;20051;-69
2024/01/24 00:36:46;;;;;;;0.73;0.35;;;;;;;18.87;57.70;100480.09;20899503;28;20393;-69
2024/01/24 00:46:48;;;;;;;0.50;0.50;;;;;;;18.89;57.74;100456.53;20925481;28;20424;-70
2024/01/24 00:56:50;;;;;;;0.52;0.40;;;;;;;18.94;57.86;100473.09;20925347;28;20504;-69
2024/01/24 01:06:52;;;;;;;0.35;0.30;;;;;;;18.98;58.24;100433.22;20882512;28;20045;-69
2024/01/24 01:16:53;;;;;;;0.55;0.38;;;;;;;18.99;58.33;100411.47;20915152;28;20048;-69
2024/01/24 01:26:55;;;;;;;0.85;0.35;;;;;;;19.01;58.41;100391.59;20916662;28;20048;-69
2024/01/24 01:36:57;;;;;;;0.65;0.30;;;;;;;19.00;58.50;100393.44;20875907;28;20048;-69
2024/01/24 01:46:59;;;;;;;0.93;0.20;;;;;;;18.99;58.89;100430.34;20876513;28;20144;-69
2024/01/24 01:57:02;;;;;;;0.70;0.40;;;;;;;19.01;59.02;100446.38;20870287;28;20102;-69
2024/01/24 02:07:03;;;;;;;0.50;0.30;;;;;;;19.01;59.36;100415.88;20872881;28;20464;-70
2024/01/24 02:17:05;;;;;;;0.35;0.25;;;;;;;19.04;59.39;100446.09;20873542;28;20048;-69
2024/01/24 02:27:08;;;;;;;0.50;0.28;;;;;;;19.01;59.67;100405.09;20857435;28;20126;-70
2024/01/24 02:37:10;;;;;;;0.40;0.40;;;;;;;19.06;59.60;100438.69;20979919;28;20044;-70
2024/01/24 02:47:12;;;;;;;0.82;0.40;;;;;;;19.07;59.71;100423.34;20982876;28;20093;-69
2024/01/24 02:57:14;;;;;;;1.23;0.30;;;;;;;19.07;59.81;100442.25;21006435;28;20098;-69
2024/01/24 03:07:15;;;;;;;1.10;0.30;;;;;;;19.09;59.82;100432.13;20997850;28;20048;-69
2024/01/24 03:17:18;;;;;;;0.93;0.40;;;;;;;19.08;59.84;100439.38;21010888;28;20101;-69
2024/01/24 03:27:20;;;;;;;1.70;0.50;;;;;;;19.09;59.76;100449.16;21002791;28;20055;-69
2024/01/24 03:37:22;;;;;;;1.00;0.40;;;;;;;19.09;59.71;100437.53;20978376;28;20137;-69
2024/01/24 03:47:23;;;;;;;1.23;0.60;;;;;;;19.07;59.33;100470.06;20961231;28;20117;-70
2024/01/24 03:57:25;;;;;;;0.65;0.45;;;;;;;19.03;59.52;100474.06;20974628;28;20110;-69
2024/01/24 04:07:27;;;;;;;1.38;0.55;;;;;;;19.00;59.52;100452.78;20972655;28;20047;-69
2024/01/24 04:17:30;;;;;;;1.77;0.82;;;;;;;19.00;59.20;100468.97;21004099;28;20043;-69
2024/01/24 04:27:32;;;;;;;2.00;0.90;;;;;;;18.99;59.00;100468.13;20977699;28;20043;-70
2024/01/24 04:37:34;;;;;;;2.97;0.80;;;;;;;18.97;58.87;100472.81;21002880;28;20565;-70
2024/01/24 04:47:38;;;;;;;2.28;1.02;;;;;;;18.98;58.41;100474.50;21036447;28;20060;-70
2024/01/24 04:57:40;;;;;;;2.60;1.00;;;;;;;18.99;58.31;100500.47;20999323;28;20105;-70
2024/01/24 05:07:42;;;;;;;2.13;1.00;;;;;;;19.00;58.11;100520.22;21015055;28;20415;-69
2024/01/24 05:17:43;;;;;;;4.35;1.35;;;;;;;18.98;57.86;100535.72;20966095;28;20514;-70
2024/01/24 05:27:46;;;;;;;5.10;1.52;;;;;;;19.00;57.34;100568.78;20978998;28;20045;-69
2024/01/24 05:37:48;;;;;;;5.03;1.70;;;;;;;18.99;57.11;100594.91;21041729;28;20052;-69
2024/01/24 05:47:50;;;;;;;3.88;1.67;;;;;;;19.02;57.02;100638.78;21023696;28;20075;-69
2024/01/24 05:57:52;;;;;;;3.58;1.40;;;;;;;19.00;56.49;100638.94;21004352;28;20122;-69
2024/01/24 06:07:54;;;;;;;5.75;2.00;;;;;;;18.95;56.35;100636.63;20968259;28;20537;-70
2024/01/24 06:17:56;;;;;;;5.75;2.10;;;;;;;18.95;56.00;100660.91;21006532;28;20043;-70
2024/01/24 06:27:57;;;;;;;6.30;2.38;;;;;;;18.96;55.61;100668.00;20996917;28;20056;-70
2024/01/24 06:38:01;;;;;;;6.57;2.30;;;;;;;18.82;55.30;100685.56;20983377;27;20471;-69
2024/01/24 06:48:03;;;;;;;5.63;2.15;;;;;;;18.92;54.90;100712.47;21003098;28;20059;-69
2024/01/24 06:58:05;;;;;;;5.97;2.38;;;;;;;18.83;54.80;100716.06;20997283;28;20040;-69
2024/01/24 07:08:08;;;;;;;8.52;2.45;;;;;;;18.85;54.71;100738.34;20989588;28;20041;-69
2024/01/24 07:18:09;;;;;;;6.57;2.85;;;;;;;18.87;54.29;100738.19;20978760;28;20052;-70
2024/01/24 07:28:11;;;;;;;7.22;2.00;;;;;;;18.84;54.25;100758.22;20988468;28;20058;-69
2024/01/24 07:38:13;;;;;;;6.63;2.42;;;;;;;18.76;54.55;100769.72;20995076;28;20048;-72
2024/01/24 07:48:15;;;;;;;8.63;2.65;;;;;;;18.89;54.19;100764.00;20999511;28;20055;-71
2024/01/24 07:58:17;;;;;;;10.70;3.72;;;;;;;19.01;54.98;100791.72;21016201;28;20138;-71
2024/01/24 08:08:31;;;;;;;17.83;7.20;;;;;;;19.12;55.80;100833.88;21015140;28;20059;-70
2024/01/24 08:18:34;;;;;;;18.25;6.00;;;;;;;19.28;54.77;100855.69;21022377;28;20060;-69
2024/01/24 08:28:36;;;;;;;15.18;5.65;;;;;;;19.49;54.42;100851.94;21011602;27;20052;-68
2024/01/24 08:38:37;;;;;;;35.58;11.18;;;;;;;19.61;58.95;100886.84;21001909;28;20094;-67
2024/01/24 08:48:39;;;;;;;19.90;7.40;;;;;;;19.72;60.30;100900.16;20989055;28;20048;-71
2024/01/24 08:58:42;;;;;;;16.40;5.80;;;;;;;19.96;59.33;100888.00;20993937;28;20527;-67
2024/01/24 09:08:44;;;;;;;16.95;5.40;;;;;;;20.11;58.09;100902.69;20953982;28;20044;-68
2024/01/24 09:18:46;;;;;;;13.60;4.75;;;;;;;20.23;56.64;100959.25;20971589;27;20655;-69
2024/01/24 09:28:48;;;;;;;12.93;4.80;;;;;;;20.44;55.38;100977.91;20974504;28;20052;-70
2024/01/24 09:38:50;;;;;;;15.57;5.10;;;;;;;20.37;54.78;100942.53;20974448;28;20052;-69
2024/01/24 09:48:52;;;;;;;10.95;4.18;;;;;;;20.80;54.05;101004.22;20990915;28;20063;-70
2024/01/24 09:58:54;;;;;;;11.00;4.13;;;;;;;20.78;53.43;101007.03;20993884;28;20097;-69
2024/01/24 10:08:57;;;;;;;11.02;3.92;;;;;;;20.98;53.11;101069.16;20986386;28;20048;-76
2024/01/24 10:18:58;;;;;;;8.45;3.60;;;;;;;21.00;52.77;101069.88;20981941;28;20048;-72
2024/01/24 10:29:01;;;;;;;8.35;3.40;;;;;;;21.07;51.83;101065.56;20974362;28;20047;-74
2024/01/24 10:39:06;;;;;;;11.77;3.85;;;;;;;21.18;51.30;101077.16;20985301;28;20043;-74
2024/01/24 10:49:12;;;;;;;8.98;3.10;;;;;;;21.17;50.65;101091.69;20962935;28;20051;-73
2024/01/24 10:59:15;;;;;;;9.60;3.00;;;;;;;21.27;50.52;101117.72;20977477;28;20044;-78
2024/01/24 11:09:45;;;;;;;7.43;2.95;;;;;;;21.25;50.52;101140.50;20973036;28;20059;-85
2024/01/24 11:19:47;;;;;;;8.73;3.10;;;;;;;21.17;49.68;101175.63;20963396;28;20045;-76
2024/01/24 11:29:51;;;;;;;6.85;2.85;;;;;;;21.12;49.51;101151.69;20983580;28;20075;-76
2024/01/24 11:39:54;;;;;;;9.15;2.92;;;;;;;21.09;49.19;101198.03;20978210;28;20051;-76
2024/01/24 11:49:56;;;;;;;7.05;2.70;;;;;;;21.00;48.94;101221.44;20953888;28;20040;-76
2024/01/24 11:59:58;;;;;;;7.07;2.60;;;;;;;20.88;48.92;101237.03;20970238;28;20203;-81
2024/01/24 12:10:00;;;;;;;7.47;2.55;;;;;;;20.86;49.40;101253.38;20987477;28;20153;-67
2024/01/24 12:20:07;;;;;;;9.30;2.92;;;;;;;20.79;51.35;101273.91;20964774;28;20056;-68
2024/01/24 12:30:10;;;;;;;6.53;2.60;;;;;;;20.95;51.32;101305.78;20999696;27;20913;-67
2024/01/24 12:40:16;;;;;;;7.18;2.55;;;;;;;21.00;51.84;101327.00;20986776;28;20056;-67
2024/01/24 12:50:18;;;;;;;10.05;2.47;;;;;;;21.07;52.02;101348.91;20984444;28;20055;-67
2024/01/24 13:00:20;;;;;;;7.13;2.75;;;;;;;21.07;51.83;101367.88;20993959;28;20562;-65
2024/01/24 13:10:23;;;;;;;7.22;2.80;;;;;;;21.10;51.77;101371.16;20986832;28;20186;-66
2024/01/24 13:20:25;;;;;;;8.07;2.92;;;;;;;21.05;52.19;101391.53;20971715;28;20055;-68
2024/01/24 13:30:27;;;;;;;10.18;3.30;;;;;;;21.11;51.68;101431.53;20981179;27;20063;-66
2024/01/24 13:40:30;;;;;;;7.57;3.15;;;;;;;21.05;53.38;101435.69;20975480;28;20048;-67
2024/01/24 13:50:36;;;;;;;7.50;3.65;;;;;;;21.10;64.10;101441.53;20968454;28;20485;-69
2024/01/24 14:00:38;;;;;;;10.02;4.50;;;;;;;21.19;69.76;101466.88;20974634;28;20051;-66
2024/01/24 14:10:40;;;;;;;9.40;3.67;;;;;;;21.11;67.53;101507.34;20981985;28;20404;-70
2024/01/24 14:20:42;;;;;;;8.73;3.25;;;;;;;20.95;64.88;101522.31;20962469;28;20046;-68
2024/01/24 14:30:44;;;;;;;7.53;2.95;;;;;;;20.82;62.75;101559.63;20981610;28;20619;-68
2024/01/24 14:40:46;;;;;;;7.10;2.97;;;;;;;20.75;60.18;101569.22;20963158;28;20055;-70
2024/01/24 14:50:48;;;;;;;5.88;2.38;;;;;;;20.65;58.65;101635.00;20963392;28;20085;-70
2024/01/24 15:00:51;;;;;;;8.18;2.72;;;;;;;20.60;57.33;101625.59;20983384;28;20056;-69
2024/01/24 15:10:53;;;;;;;6.25;2.80;;;;;;;20.48;56.95;101644.63;20963930;28;20055;-71
2024/01/24 15:20:55;;;;;;;7.68;3.40;;;;;;;20.47;56.30;101648.31;20989307;28;20071;-74
2024/01/24 15:31:11;;;;;;;7.47;2.80;;;;;;;20.43;56.00;101672.09;20986456;28;20049;-72
2024/01/24 15:41:13;;;;;;;7.65;2.95;;;;;;;20.39;55.83;101688.69;20973378;28;20048;-71
2024/01/24 15:51:16;;;;;;;7.97;2.83;;;;;;;20.36;55.61;101694.38;20970422;28;20053;-71
2024/01/24 16:01:18;;;;;;;8.18;2.80;;;;;;;20.27;55.22;101728.47;20990957;28;20134;-70
2024/01/24 16:11:20;;;;;;;9.77;3.92;;;;;;;20.16;56.07;101728.53;20975435;27;20189;-81
2024/01/24 16:21:23;;;;;;;8.13;3.08;;;;;;;20.02;56.68;101756.75;20968136;27;20052;-78
2024/01/24 16:31:25;;;;;;;8.35;2.55;;;;;;;20.02;60.19;101762.16;20965513;28;20048;-75
2024/01/24 16:41:27;;;;;;;7.55;2.60;;;;;;;20.05;59.08;101770.00;20964129;28;20048;-72
2024/01/24 16:51:29;;;;;;;9.40;2.80;;;;;;;20.01;57.83;101809.97;20942282;28;20055;-64
2024/01/24 17:01:30;;;;;;;7.30;2.58;;;;;;;20.03;57.33;101812.50;20970691;27;20135;-64
2024/01/24 17:11:32;;;;;;;8.10;2.70;;;;;;;19.92;56.93;101824.25;20974160;28;20129;-66
2024/01/24 17:21:34;;;;;;;7.70;2.60;;;;;;;19.84;57.08;101835.63;20981794;28;20397;-66
2024/01/24 17:31:37;;;;;;;7.15;2.50;;;;;;;19.71;57.12;101862.81;20954083;28;20052;-63
2024/01/24 17:41:39;;;;;;;5.85;2.20;;;;;;;19.67;57.16;101866.72;20961774;28;20189;-63
2024/01/24 17:51:41;;;;;;;5.78;2.42;;;;;;;19.56;57.21;101876.56;20965827;28;20047;-65
2024/01/24 18:01:44;;;;;;;5.65;2.28;;;;;;;19.38;56.68;101892.41;20977682;27;20044;-65
2024/01/24 18:11:46;;;;;;;6.57;2.50;;;;;;;19.24;56.77;101903.44;20943703;28;20059;-65
2024/01/24 18:21:48;;;;;;;5.20;2.00;;;;;;;19.16;56.56;101930.16;20975967;28;20049;-65
2024/01/24 18:31:51;;;;;;;7.22;2.88;;;;;;;19.07;56.30;101929.91;20989641;28;20579;-65
2024/01/24 18:41:53;;;;;;;5.45;2.28;;;;;;;19.01;56.24;101924.16;20991223;28;20040;-63
2024/01/24 18:51:54;;;;;;;6.32;2.35;;;;;;;18.98;55.89;101936.88;20999775;28;20044;-66
2024/01/24 19:01:56;;;;;;;5.88;2.30;;;;;;;18.95;55.89;101980.25;20986042;28;20056;-65
2024/01/24 19:11:58;;;;;;;6.93;2.17;;;;;;;18.88;55.82;101973.59;21000603;28;20428;-64
2024/01/24 19:22:00;;;;;;;7.60;2.78;;;;;;;18.88;55.70;101968.19;20967974;28;20205;-64
2024/01/24 19:32:03;;;;;;;7.32;1.95;;;;;;;18.89;55.42;101975.31;21017663;28;20080;-63
2024/01/24 19:42:05;;;;;;;5.07;2.20;;;;;;;18.79;55.40;101975.19;21037826;28;20173;-64
2024/01/24 19:52:06;;;;;;;9.65;3.08;;;;;;;18.68;55.87;101972.41;21025542;28;20082;-65
2024/01/24 20:02:09;;;;;;;6.32;2.63;;;;;;;18.74;56.71;101995.38;21030493;28;20117;-63
2024/01/24 20:12:10;;;;;;;7.85;3.08;;;;;;;18.71;57.20;101993.75;21013361;28;20500;-63
2024/01/24 20:22:14;;;;;;;7.88;2.55;;;;;;;18.69;57.15;101995.72;21037703;28;20049;-64
2024/01/24 20:32:16;;;;;;;9.35;3.67;;;;;;;18.64;57.03;102001.47;21027422;28;20050;-63
2024/01/24 20:42:17;;;;;;;5.80;2.70;;;;;;;18.58;56.85;102004.63;21003097;28;20052;-63
2024/01/24 20:52:29;;;;;;;4.85;2.05;;;;;;;18.53;56.73;102002.25;21001170;28;20105;-63
2024/01/24 21:02:31;;;;;;;5.80;2.22;;;;;;;18.17;56.46;101951.91;21008396;28;20047;-63
2024/01/24 21:12:33;;;;;;;7.28;2.55;;;;;;;18.45;56.36;101995.69;20987061;28;20540;-63
2024/01/24 21:22:35;;;;;;;6.55;2.40;;;;;;;18.38;56.10;102006.94;21005048;28;20063;-63
2024/01/24 21:32:37;;;;;;;6.78;2.35;;;;;;;18.34;55.83;102000.06;20997815;28;20068;-63
2024/01/24 21:42:39;;;;;;;6.55;2.83;;;;;;;18.31;55.41;102019.16;20997505;28;20129;-63
2024/01/24 21:52:41;;;;;;;7.70;2.50;;;;;;;18.24;55.49;102034.91;20993753;28;20138;-63
2024/01/24 22:02:42;;;;;;;7.25;2.63;;;;;;;18.22;55.32;102041.38;20996394;28;20052;-63
2024/01/24 22:12:45;;;;;;;6.55;2.50;;;;;;;18.20;54.94;102063.03;21000501;28;20093;-63
2024/01/24 22:22:47;;;;;;;8.38;2.65;;;;;;;18.16;54.72;102068.78;20997096;28;20055;-64
2024/01/24 22:32:49;;;;;;;9.45;2.72;;;;;;;18.13;54.68;102079.78;21009967;28;20492;-63
2024/01/24 22:42:51;;;;;;;6.47;2.03;;;;;;;18.12;54.53;102073.53;20978890;28;20230;-64
2024/01/24 22:52:53;;;;;;;4.60;1.90;;;;;;;18.08;54.18;102072.88;20969004;28;20044;-63
2024/01/24 23:02:55;;;;;;;5.78;2.17;;;;;;;18.00;53.92;102069.81;21014697;28;20048;-63
2024/01/24 23:12:57;;;;;;;6.30;2.13;;;;;;;18.05;53.82;102102.72;21017870;28;20055;-63
2024/01/24 23:22:59;;;;;;;6.55;2.58;;;;;;;18.02;53.74;102116.41;20978328;28;20106;-64
2024/01/24 23:33:01;;;;;;;6.03;2.17;;;;;;;18.02;53.55;102120.97;20974644;28;20492;-64
2024/01/24 23:43:03;;;;;;;5.97;2.20;;;;;;;18.01;53.54;102120.06;21017987;28;20099;-63
2024/01/24 23:53:04;;;;;;;5.95;2.35;;;;;;;17.99;53.46;102132.75;20990641;28;20040;-63
